Terminal Aerodrome Forecast
Issued by NWS St Louis, MO

Home | Current Version | Previous Version | Text Only | Print | Product List | Glossary On
Versions: 1 2 3 4 5 6 7 8 9 10 11 12 13 14 15 16 17 18 19 20 21 22 23 24 25 26 27 28
071
FTUS43 KLSX 281500 AAA
TAFSTL
TAF AMD
KSTL 281500Z 2815/2918 27012G18KT P6SM FEW040
     FM290000 31005KT P6SM SCT150
     FM291200 VRB04KT P6SM BKN120=

USA.gov is the U.S. government's official web portal to all federal, state and local government web resources and services.